Time;durP1;ratioP1;P1;durP2;ratioP2;P2;SDS_P1;SDS_P2;PMS_P1;PMS_P2;Temp;Humidity;BMP_temperature;BMP_pressure;BME280_temperature;BME280_humidity;BME280_pressure;Samples;Min_cycle;Max_cycle;Signal;HPM_P1;HPM_P2
2022/09/07 00:00:23;;;;;;;8.80;8.00;;;;;;;20.22;67.92;99992.94;5102941;28;20444;-63
2022/09/07 00:02:50;;;;;;;10.07;8.57;;;;;;;20.44;66.48;99995.44;5100953;28;20481;-64
2022/09/07 00:05:17;;;;;;;9.27;8.40;;;;;;;20.54;65.90;99986.84;5101343;28;20481;-64
2022/09/07 00:07:45;;;;;;;11.37;8.57;;;;;;;20.66;65.82;99988.72;5102162;28;20479;-63
2022/09/07 00:10:12;;;;;;;9.93;8.97;;;;;;;20.49;66.79;99987.50;5110187;28;20443;-65
2022/09/07 00:12:39;;;;;;;10.23;9.23;;;;;;;20.47;67.30;99992.31;5121402;28;20451;-64
2022/09/07 00:15:09;;;;;;;11.73;9.33;;;;;;;20.47;67.11;99990.41;5116893;28;20469;-64
2022/09/07 00:17:36;;;;;;;10.00;9.10;;;;;;;20.44;67.15;99981.84;5085910;28;20450;-64
2022/09/07 00:20:04;;;;;;;11.40;10.20;;;;;;;20.35;67.37;99983.97;5105026;28;20448;-64
2022/09/07 00:22:30;;;;;;;11.47;10.37;;;;;;;20.56;66.73;99979.31;5120972;28;20472;-64
2022/09/07 00:24:59;;;;;;;12.57;9.30;;;;;;;20.60;66.61;99983.28;5121102;28;20521;-64
2022/09/07 00:27:25;;;;;;;9.70;8.90;;;;;;;20.33;67.85;99977.91;5116105;28;20474;-64
2022/09/07 00:29:52;;;;;;;9.40;8.50;;;;;;;20.39;67.89;99971.63;5118373;28;20564;-64
2022/09/07 00:32:19;;;;;;;13.73;8.97;;;;;;;20.39;68.11;99971.63;5105249;28;20475;-65
2022/09/07 00:34:46;;;;;;;10.90;8.90;;;;;;;20.48;67.93;99969.50;5091718;28;20730;-64
2022/09/07 00:37:12;;;;;;;9.40;8.50;;;;;;;20.64;66.76;99963.66;5116975;28;20579;-64
2022/09/07 00:39:39;;;;;;;9.27;8.23;;;;;;;20.60;66.78;99965.09;5121456;28;20452;-64
2022/09/07 00:42:07;;;;;;;8.10;7.30;;;;;;;20.63;66.65;99967.41;5118410;28;20566;-64
2022/09/07 00:45:09;;;;;;;10.83;8.10;;;;;;;20.72;66.49;99953.59;5120216;28;20502;-63
2022/09/07 00:47:44;;;;;;;9.23;7.40;;;;;;;20.77;66.49;99961.94;5089407;28;20468;-63
2022/09/07 00:50:15;;;;;;;8.97;8.00;;;;;;;20.75;66.52;99962.16;5100399;28;20558;-63
2022/09/07 00:52:43;;;;;;;7.23;6.63;;;;;;;20.77;66.45;99957.34;5108503;28;20450;-62
2022/09/07 00:55:11;;;;;;;7.87;7.00;;;;;;;20.88;66.02;99953.97;5119127;28;20882;-63
2022/09/07 00:57:42;;;;;;;8.53;7.73;;;;;;;20.96;65.56;99944.72;5100188;28;20474;-63
2022/09/07 01:00:10;;;;;;;9.03;7.10;;;;;;;20.95;65.39;99932.16;5100384;28;20499;-63
2022/09/07 01:02:37;;;;;;;11.40;7.10;;;;;;;20.93;65.58;99941.59;5100967;28;20869;-63
2022/09/07 01:05:08;;;;;;;7.57;6.87;;;;;;;21.20;64.87;99956.72;5104619;28;20472;-63
2022/09/07 01:07:34;;;;;;;7.50;6.90;;;;;;;21.06;65.39;99969.56;5117266;28;20466;-64
2022/09/07 01:10:01;;;;;;;6.90;6.20;;;;;;;20.93;66.10;99952.47;5106363;28;20452;-64
2022/09/07 01:12:28;;;;;;;6.87;6.27;;;;;;;20.89;66.11;99943.94;5122260;28;20483;-64
2022/09/07 01:14:56;;;;;;;8.73;6.73;;;;;;;21.20;65.34;99953.19;5124638;28;20843;-64
2022/09/07 01:17:31;;;;;;;7.27;6.57;;;;;;;21.15;65.09;99970.13;5118010;28;20541;-64
2022/09/07 01:20:23;;;;;;;6.80;6.10;;;;;;;21.08;65.42;99966.63;5105444;28;20439;-63
2022/09/07 01:23:20;;;;;;;7.10;6.40;;;;;;;21.13;65.74;99985.00;5095083;28;20461;-63
2022/09/07 01:26:00;;;;;;;8.03;5.90;;;;;;;20.96;66.21;99996.34;5101572;28;20471;-63
2022/09/07 01:28:29;;;;;;;5.90;5.30;;;;;;;20.96;66.51;100020.00;5107427;28;21049;-64
2022/09/07 01:30:57;;;;;;;6.47;5.87;;;;;;;20.95;66.15;100029.19;5119616;28;20993;-64
2022/09/07 01:33:40;;;;;;;7.73;6.93;;;;;;;20.90;66.34;100043.44;5124937;28;20454;-64
2022/09/07 01:36:17;;;;;;;7.03;6.43;;;;;;;20.96;66.36;100058.88;5121114;28;20875;-64
2022/09/07 01:38:46;;;;;;;8.13;7.10;;;;;;;21.04;66.27;100085.00;5103995;28;20432;-64
2022/09/07 01:41:16;;;;;;;8.50;7.20;;;;;;;20.90;66.58;100100.50;5103509;28;21029;-64
2022/09/07 01:43:48;;;;;;;6.80;6.20;;;;;;;20.91;66.16;100118.44;5109336;28;20530;-64
2022/09/07 01:46:19;;;;;;;6.97;5.20;;;;;;;21.06;64.43;100120.94;5113805;28;20475;-66
2022/09/07 01:48:47;;;;;;;6.20;4.30;;;;;;;21.11;63.41;100120.28;5104190;28;20453;-66
2022/09/07 01:51:15;;;;;;;5.30;3.70;;;;;;;21.16;63.09;100134.06;5104149;28;20477;-65
2022/09/07 01:53:44;;;;;;;8.00;3.60;;;;;;;21.11;63.35;100131.16;5104851;28;20511;-65
2022/09/07 01:56:13;;;;;;;6.23;3.50;;;;;;;20.96;64.68;100121.38;5103807;28;20475;-65
2022/09/07 01:58:45;;;;;;;5.67;3.40;;;;;;;20.73;66.67;100112.81;5104069;28;20604;-65
2022/09/07 02:01:14;;;;;;;8.33;4.17;;;;;;;20.55;69.00;100124.31;5103655;28;20498;-65
2022/09/07 02:03:42;;;;;;;6.93;3.20;;;;;;;20.45;69.35;100122.00;5103838;28;20538;-65
2022/09/07 02:06:15;;;;;;;5.20;3.20;;;;;;;20.39;69.76;100112.81;5104480;28;20574;-65
2022/09/07 02:08:44;;;;;;;7.80;3.37;;;;;;;20.36;69.95;100115.13;5112794;28;20439;-65
2022/09/07 02:11:13;;;;;;;6.33;3.53;;;;;;;20.18;71.24;100100.28;5111553;28;20479;-65
2022/09/07 02:13:41;;;;;;;6.23;3.47;;;;;;;20.43;69.86;100094.22;5123675;28;20453;-66
2022/09/07 02:16:11;;;;;;;4.43;3.70;;;;;;;20.46;70.10;100091.09;5104764;28;20483;-64
2022/09/07 02:18:42;;;;;;;4.43;3.80;;;;;;;20.38;70.44;100075.00;5121648;28;20538;-65
2022/09/07 02:21:10;;;;;;;5.60;3.80;;;;;;;20.23;71.54;100062.47;5120646;28;20474;-66
2022/09/07 02:23:41;;;;;;;6.77;4.50;;;;;;;20.25;71.35;100073.97;5109957;28;20501;-66
2022/09/07 02:26:12;;;;;;;6.03;4.10;;;;;;;20.11;72.53;100062.25;5106188;28;20547;-66
2022/09/07 02:28:39;;;;;;;6.73;4.77;;;;;;;20.04;71.77;100055.19;5110959;28;20447;-66
2022/09/07 02:31:07;;;;;;;4.43;4.03;;;;;;;19.97;72.83;100073.34;5112466;28;20476;-67
2022/09/07 02:33:35;;;;;;;5.17;4.23;;;;;;;19.78;74.12;100078.50;5103546;28;20493;-67
2022/09/07 02:36:03;;;;;;;5.00;3.97;;;;;;;19.51;75.11;100093.81;5111132;28;20526;-66
2022/09/07 02:38:30;;;;;;;4.90;4.00;;;;;;;19.61;74.98;100102.41;5123592;28;20487;-65
2022/09/07 02:40:59;;;;;;;5.87;3.93;;;;;;;19.60;74.58;100108.88;5106006;28;21005;-67
2022/09/07 02:43:26;;;;;;;5.23;4.17;;;;;;;19.77;74.32;100117.50;5122728;28;20526;-65
2022/09/07 02:46:04;;;;;;;4.93;3.90;;;;;;;19.83;73.64;100124.84;5121915;28;20535;-65
2022/09/07 02:48:37;;;;;;;5.20;4.10;;;;;;;19.63;75.17;100113.88;5123272;28;20432;-65
2022/09/07 02:51:11;;;;;;;5.13;4.27;;;;;;;19.59;75.60;100101.78;5121864;28;20503;-66
2022/09/07 02:54:00;;;;;;;6.97;3.77;;;;;;;19.59;75.34;100099.06;5114361;28;20452;-66
2022/09/07 02:56:45;;;;;;;6.53;4.40;;;;;;;19.64;74.74;100087.63;5102989;28;20475;-66
2022/09/07 02:59:23;;;;;;;8.03;4.30;;;;;;;19.53;75.49;100092.59;5103650;28;20432;-65
2022/09/07 03:01:56;;;;;;;5.80;4.30;;;;;;;19.54;76.07;100083.41;5100566;28;20551;-64
2022/09/07 03:04:31;;;;;;;5.80;4.50;;;;;;;19.46;75.95;100085.47;5122638;28;20530;-64
2022/09/07 03:07:03;;;;;;;6.10;4.33;;;;;;;19.57;75.29;100093.84;5088867;28;20485;-64
2022/09/07 03:09:35;;;;;;;10.20;4.90;;;;;;;19.38;75.95;100091.91;5105412;28;20478;-64
2022/09/07 03:12:02;;;;;;;6.23;4.73;;;;;;;19.41;76.41;100093.34;5112298;28;20479;-64
2022/09/07 03:14:32;;;;;;;6.30;4.47;;;;;;;19.54;75.93;100082.56;5107683;28;20448;-64
2022/09/07 03:16:59;;;;;;;5.67;4.13;;;;;;;19.63;75.63;100085.94;5112492;28;20479;-64
2022/09/07 03:19:27;;;;;;;6.93;5.20;;;;;;;19.46;76.57;100093.59;5102820;28;20429;-63
2022/09/07 03:21:54;;;;;;;7.07;4.27;;;;;;;19.42;77.03;100085.03;5103411;28;20491;-64
2022/09/07 03:24:21;;;;;;;5.93;4.40;;;;;;;19.47;76.95;100084.44;5111040;28;20872;-64
2022/09/07 03:26:49;;;;;;;5.07;4.57;;;;;;;19.39;77.73;100082.75;5113936;28;20504;-63
2022/09/07 03:29:16;;;;;;;6.40;5.03;;;;;;;19.61;76.93;100075.28;5107469;28;20447;-68
2022/09/07 03:31:43;;;;;;;4.70;4.13;;;;;;;19.60;76.43;100070.94;5110252;28;20529;-65
2022/09/07 03:34:10;;;;;;;6.50;4.07;;;;;;;19.60;76.89;100068.22;5117898;28;20435;-65
2022/09/07 03:36:38;;;;;;;5.17;4.67;;;;;;;19.58;76.99;100051.28;5122248;28;20470;-65
2022/09/07 03:39:05;;;;;;;6.33;4.80;;;;;;;19.52;77.48;100033.97;5120665;28;20454;-66
2022/09/07 03:41:32;;;;;;;9.23;4.67;;;;;;;19.52;77.96;100011.44;5121678;28;20513;-65
2022/09/07 03:44:03;;;;;;;5.43;4.20;;;;;;;19.30;78.05;100002.63;5116629;28;20459;-65
2022/09/07 03:46:29;;;;;;;6.63;5.20;;;;;;;19.14;80.00;99982.97;5100873;28;20554;-65
2022/09/07 03:48:56;;;;;;;7.60;5.20;;;;;;;19.30;79.74;99975.50;5118953;28;20496;-65
2022/09/07 03:51:23;;;;;;;9.93;5.00;;;;;;;19.29;80.25;99971.97;5119751;28;21165;-66
2022/09/07 03:53:51;;;;;;;5.67;5.00;;;;;;;19.03;80.73;99964.59;5116976;28;20457;-65
2022/09/07 03:56:21;;;;;;;8.63;5.13;;;;;;;19.18;80.60;99951.72;5117331;28;20479;-66
2022/09/07 03:58:48;;;;;;;8.30;6.10;;;;;;;19.24;80.72;99949.25;5100826;28;20460;-65
2022/09/07 04:01:17;;;;;;;6.93;5.93;;;;;;;19.22;81.40;99948.59;5101798;28;21017;-65
2022/09/07 04:03:45;;;;;;;6.93;5.30;;;;;;;19.43;81.08;99964.72;5101244;28;20521;-66
2022/09/07 04:06:12;;;;;;;9.03;5.70;;;;;;;19.33;81.18;99966.97;5114640;28;20544;-67
2022/09/07 04:08:40;;;;;;;5.27;4.77;;;;;;;19.22;81.87;99975.69;5110787;28;20440;-64
2022/09/07 04:11:11;;;;;;;7.27;5.70;;;;;;;19.29;81.01;99968.44;5100656;28;20998;-64
2022/09/07 04:13:38;;;;;;;8.40;5.80;;;;;;;19.31;81.19;99972.59;5120078;28;20450;-64
2022/09/07 04:16:12;;;;;;;9.83;5.60;;;;;;;19.23;81.19;99967.34;5117782;28;20510;-65
2022/09/07 04:18:39;;;;;;;7.60;5.53;;;;;;;19.19;81.70;99982.38;5100930;28;20450;-64
2022/09/07 04:21:06;;;;;;;11.90;5.77;;;;;;;18.95;82.39;100008.94;5104273;28;20521;-62
2022/09/07 04:23:33;;;;;;;7.10;5.70;;;;;;;19.06;82.64;99999.44;5115180;28;20456;-63
2022/09/07 04:26:00;;;;;;;6.20;5.60;;;;;;;18.78;83.49;99975.09;5097488;27;20488;-63
2022/09/07 04:28:28;;;;;;;6.17;5.67;;;;;;;18.87;83.51;99970.34;5104073;28;20462;-64
2022/09/07 04:30:55;;;;;;;10.83;6.10;;;;;;;18.78;83.55;99970.53;5099943;28;20487;-67
2022/09/07 04:33:21;;;;;;;5.93;5.33;;;;;;;19.19;82.42;99988.63;5087559;28;20496;-68
2022/09/07 04:35:48;;;;;;;8.50;6.00;;;;;;;19.08;82.87;100018.16;5100556;28;20529;-69
2022/09/07 04:38:16;;;;;;;6.23;5.63;;;;;;;18.92;83.65;100011.22;5100659;28;20926;-68
2022/09/07 04:40:42;;;;;;;7.73;6.33;;;;;;;18.80;83.89;100010.91;5101712;28;20472;-67
2022/09/07 04:43:11;;;;;;;14.43;6.20;;;;;;;18.77;83.77;100006.75;5100684;28;20532;-67
2022/09/07 04:45:40;;;;;;;7.93;7.13;;;;;;;18.78;84.07;100002.16;5112005;28;20499;-68
2022/09/07 04:48:07;;;;;;;12.90;5.80;;;;;;;18.83;83.59;100001.59;5099467;28;20597;-67
2022/09/07 04:50:33;;;;;;;9.67;6.20;;;;;;;18.61;84.15;100007.91;5103194;28;20501;-67
2022/09/07 04:53:00;;;;;;;7.00;6.30;;;;;;;18.61;84.52;99993.56;5103878;28;20490;-69
2022/09/07 04:55:28;;;;;;;11.90;6.30;;;;;;;18.49;84.79;99982.44;5103333;28;20550;-67
2022/09/07 04:57:54;;;;;;;9.90;5.77;;;;;;;18.53;84.28;99983.69;5110052;28;20460;-67
2022/09/07 05:00:22;;;;;;;8.47;6.13;;;;;;;18.65;83.68;99991.28;5101496;28;20524;-68
2022/09/07 05:02:50;;;;;;;9.87;6.60;;;;;;;18.69;83.84;99982.53;5102397;28;20455;-67
2022/09/07 05:05:17;;;;;;;7.40;6.60;;;;;;;18.73;83.19;99980.25;5097762;28;20480;-67
2022/09/07 05:07:43;;;;;;;9.43;6.70;;;;;;;18.61;83.73;99975.44;5096771;28;20452;-66
2022/09/07 05:10:10;;;;;;;7.70;6.17;;;;;;;18.59;83.74;99963.09;5096349;28;21137;-66
2022/09/07 05:12:37;;;;;;;6.63;6.03;;;;;;;18.62;83.91;99965.44;5097123;28;20545;-69
2022/09/07 05:15:05;;;;;;;7.20;6.50;;;;;;;18.76;83.72;99966.31;5100322;28;20447;-66
2022/09/07 05:17:31;;;;;;;11.63;6.77;;;;;;;18.73;83.58;99955.88;5100340;28;20465;-67
2022/09/07 05:20:00;;;;;;;6.90;6.13;;;;;;;18.81;83.78;99958.44;5105986;28;20478;-67
2022/09/07 05:22:26;;;;;;;7.50;6.07;;;;;;;18.81;83.42;99947.59;5106731;28;20587;-67
2022/09/07 05:24:56;;;;;;;11.10;6.70;;;;;;;18.84;83.16;99944.53;5113812;28;20480;-67
2022/09/07 05:27:23;;;;;;;10.43;7.43;;;;;;;18.85;82.67;99943.47;5106852;28;20482;-67
2022/09/07 05:29:49;;;;;;;10.63;6.70;;;;;;;18.90;82.63;99946.41;5120475;28;20434;-67
2022/09/07 05:32:16;;;;;;;7.47;5.90;;;;;;;19.01;81.97;99950.44;5106764;28;20481;-67
2022/09/07 05:34:43;;;;;;;9.50;5.73;;;;;;;19.09;81.53;99944.81;5099160;28;20431;-68
2022/09/07 05:37:11;;;;;;;5.20;4.70;;;;;;;19.16;81.05;99956.50;5098523;28;20527;-67
2022/09/07 05:39:38;;;;;;;8.97;5.80;;;;;;;19.32;80.70;99952.59;5099445;28;20439;-67
2022/09/07 05:42:05;;;;;;;8.37;5.13;;;;;;;19.43;80.49;99956.56;5095153;28;21040;-68
2022/09/07 05:44:31;;;;;;;5.37;4.87;;;;;;;19.49;80.18;99955.75;5099478;28;20910;-68
2022/09/07 05:46:58;;;;;;;9.00;5.90;;;;;;;19.42;80.25;99951.34;5098568;28;20491;-67
2022/09/07 05:49:25;;;;;;;5.87;5.17;;;;;;;19.66;79.85;99958.06;5098044;28;20443;-68
2022/09/07 05:51:52;;;;;;;9.17;6.00;;;;;;;19.77;78.91;99956.63;5098602;28;20463;-69
2022/09/07 05:54:20;;;;;;;8.67;5.13;;;;;;;20.05;76.71;99959.13;5098816;28;21190;-69
2022/09/07 05:56:46;;;;;;;7.83;5.60;;;;;;;20.05;77.03;99975.41;5099421;28;20475;-68
2022/09/07 05:59:13;;;;;;;8.27;5.03;;;;;;;19.99;77.29;99979.81;5102721;28;20466;-67
2022/09/07 06:01:40;;;;;;;6.07;5.47;;;;;;;19.91;77.56;99972.72;5098390;28;20488;-66
2022/09/07 06:04:07;;;;;;;9.17;5.67;;;;;;;19.96;77.52;99971.25;5102166;28;20451;-67
2022/09/07 06:06:37;;;;;;;7.27;5.47;;;;;;;20.31;76.35;99978.13;5104668;28;20553;-68
2022/09/07 06:09:04;;;;;;;7.93;4.97;;;;;;;20.57;75.70;99984.56;5103758;28;20428;-68
2022/09/07 06:11:32;;;;;;;5.93;5.33;;;;;;;20.82;74.56;99973.00;5101594;28;20472;-69
2022/09/07 06:13:58;;;;;;;11.33;5.43;;;;;;;21.17;73.63;99975.38;5102272;28;21041;-67
2022/09/07 06:16:25;;;;;;;6.70;4.80;;;;;;;21.57;71.64;99977.88;5102204;28;20473;-68
2022/09/07 06:18:52;;;;;;;9.50;5.10;;;;;;;21.47;71.47;99967.47;5109279;28;20458;-68
2022/09/07 06:21:21;;;;;;;7.83;4.83;;;;;;;21.87;70.00;99964.44;5106688;28;20918;-69
2022/09/07 06:23:48;;;;;;;5.50;4.30;;;;;;;22.60;67.53;99971.13;5102524;28;20451;-68
2022/09/07 06:26:16;;;;;;;7.80;5.07;;;;;;;22.56;66.33;99970.75;5101313;28;20487;-68
2022/09/07 06:28:45;;;;;;;7.70;4.70;;;;;;;23.75;62.49;99971.28;5102672;28;20981;-69
2022/09/07 06:31:13;;;;;;;8.63;4.67;;;;;;;23.66;61.51;99989.91;5102798;28;20527;-68
2022/09/07 06:33:41;;;;;;;8.63;4.93;;;;;;;23.25;63.47;99997.00;5102183;28;20460;-68
2022/09/07 06:36:11;;;;;;;5.77;4.13;;;;;;;23.06;63.68;99998.94;5102648;28;20514;-68
2022/09/07 06:38:39;;;;;;;4.73;3.80;;;;;;;23.57;61.77;99989.41;5103200;28;20487;-68
2022/09/07 06:41:07;;;;;;;5.50;3.60;;;;;;;23.63;61.59;99988.50;5100334;28;20590;-68
2022/09/07 06:43:34;;;;;;;4.37;3.97;;;;;;;24.02;60.55;99993.56;5102045;28;20487;-68
2022/09/07 06:46:02;;;;;;;5.00;3.43;;;;;;;26.08;54.63;99998.66;5102123;28;20489;-69
2022/09/07 06:48:29;;;;;;;4.60;3.37;;;;;;;25.80;53.83;99999.53;5100530;28;20441;-68
2022/09/07 06:50:57;;;;;;;6.27;3.67;;;;;;;25.02;57.02;100008.16;5102512;28;20499;-68
2022/09/07 06:53:24;;;;;;;8.17;3.80;;;;;;;24.99;56.96;100009.47;5102410;28;20611;-68
2022/09/07 06:55:51;;;;;;;6.73;4.40;;;;;;;25.40;56.54;100012.22;5107103;27;20470;-68
2022/09/07 06:58:18;;;;;;;4.40;3.50;;;;;;;25.74;55.32;100017.75;5099660;28;20458;-69
2022/09/07 07:00:45;;;;;;;6.63;4.37;;;;;;;26.17;53.26;100015.50;5100660;28;20541;-67
2022/09/07 07:03:13;;;;;;;3.33;2.90;;;;;;;27.44;49.32;100026.56;5100401;28;20460;-66
2022/09/07 07:05:40;;;;;;;5.10;3.13;;;;;;;26.20;52.37;100024.06;5100889;28;20517;-66
2022/09/07 07:08:06;;;;;;;6.87;2.93;;;;;;;26.06;52.19;100018.06;5099188;28;20441;-66
2022/09/07 07:10:37;;;;;;;4.53;3.07;;;;;;;27.05;50.43;100023.91;5100007;28;20476;-66
2022/09/07 07:13:04;;;;;;;4.10;2.80;;;;;;;26.37;51.81;100023.19;5101362;28;20464;-66
2022/09/07 07:15:31;;;;;;;5.53;3.23;;;;;;;26.65;51.40;100027.78;5102108;28;20470;-67
2022/09/07 07:17:58;;;;;;;4.10;3.23;;;;;;;25.98;52.36;100042.31;5100874;28;20436;-66
2022/09/07 07:20:28;;;;;;;4.00;2.17;;;;;;;25.23;53.27;100034.03;5102384;28;20504;-66
2022/09/07 07:22:54;;;;;;;4.50;2.30;;;;;;;25.12;53.65;100026.66;5101828;28;20468;-67
2022/09/07 07:25:21;;;;;;;3.07;2.10;;;;;;;24.68;56.36;100045.41;5100256;28;20477;-67
2022/09/07 07:27:49;;;;;;;4.03;2.90;;;;;;;25.85;53.35;100038.78;5101601;28;20479;-66
2022/09/07 07:30:17;;;;;;;4.40;2.10;;;;;;;25.84;52.65;100037.09;5101324;28;20441;-67
2022/09/07 07:32:44;;;;;;;4.33;2.93;;;;;;;25.78;53.06;100038.13;5100860;28;20468;-66
2022/09/07 07:35:12;;;;;;;4.43;2.23;;;;;;;25.54;52.80;100038.22;5101757;28;20475;-67
2022/09/07 07:37:41;;;;;;;3.30;2.33;;;;;;;26.57;49.79;100031.72;5101942;28;20442;-66
2022/09/07 07:40:10;;;;;;;4.17;2.10;;;;;;;27.49;49.00;100034.88;5100249;28;20454;-67
2022/09/07 07:42:38;;;;;;;5.93;2.47;;;;;;;27.13;48.47;100033.59;5100482;28;20531;-67
2022/09/07 07:45:07;;;;;;;2.80;1.97;;;;;;;27.42;48.34;100037.00;5101733;28;20789;-67
2022/09/07 07:47:34;;;;;;;3.70;2.30;;;;;;;28.17;46.61;100037.19;5099307;28;20450;-67
2022/09/07 07:50:01;;;;;;;4.40;2.03;;;;;;;28.83;43.44;100030.50;5101197;28;21011;-67
2022/09/07 07:52:32;;;;;;;3.00;2.13;;;;;;;28.85;43.97;100036.56;5100479;28;20474;-67
2022/09/07 07:55:00;;;;;;;4.20;2.20;;;;;;;28.50;44.88;100026.97;5100398;28;20496;-67
2022/09/07 07:57:27;;;;;;;2.43;2.00;;;;;;;28.23;45.31;100027.03;5099848;28;20532;-67
2022/09/07 07:59:54;;;;;;;2.73;1.80;;;;;;;28.44;44.63;100025.28;5100041;28;20483;-67
2022/09/07 08:02:21;;;;;;;3.53;1.87;;;;;;;28.10;45.12;100033.81;5098939;28;20572;-67
2022/09/07 08:04:48;;;;;;;3.60;1.87;;;;;;;28.47;44.98;100044.00;5101005;28;20438;-67
2022/09/07 08:07:15;;;;;;;2.23;2.00;;;;;;;27.61;46.34;100040.22;5100371;28;20476;-67
2022/09/07 08:09:43;;;;;;;6.20;1.83;;;;;;;26.90;48.14;100038.25;5100162;28;20485;-67
2022/09/07 08:12:15;;;;;;;3.53;2.20;;;;;;;26.46;50.04;100041.72;5100104;28;20479;-67
2022/09/07 08:14:42;;;;;;;3.50;1.90;;;;;;;26.08;50.96;100031.53;5100932;28;20960;-67
2022/09/07 08:17:09;;;;;;;2.77;2.00;;;;;;;26.06;51.58;100030.94;5098398;28;20906;-67
2022/09/07 08:19:36;;;;;;;3.30;1.87;;;;;;;25.78;52.60;100038.13;5100258;28;20437;-67
2022/09/07 08:22:03;;;;;;;2.37;1.87;;;;;;;26.16;50.63;100035.75;5099653;28;20469;-67
2022/09/07 08:24:30;;;;;;;4.80;1.83;;;;;;;24.71;54.06;100048.50;5099364;28;20480;-67
2022/09/07 08:26:57;;;;;;;2.50;2.30;;;;;;;25.48;52.62;100052.88;5099592;28;20508;-67
2022/09/07 08:29:27;;;;;;;2.63;2.00;;;;;;;25.07;53.48;100042.97;5100282;28;20476;-67
2022/09/07 08:31:53;;;;;;;3.17;2.07;;;;;;;25.71;52.11;100057.44;5099252;28;21105;-67
2022/09/07 08:34:21;;;;;;;2.43;1.70;;;;;;;25.92;51.86;100052.31;5099800;28;20455;-67
2022/09/07 08:36:47;;;;;;;3.40;1.80;;;;;;;28.36;45.44;100051.34;5099478;27;20504;-67
2022/09/07 08:39:14;;;;;;;5.90;2.07;;;;;;;30.11;40.90;100054.88;5100008;28;20502;-68
2022/09/07 08:42:03;;;;;;;4.93;2.40;;;;;;;31.07;38.29;100064.13;5099346;28;20497;-67
2022/09/07 08:44:33;;;;;;;2.90;1.97;;;;;;;31.55;37.79;100058.13;5100214;28;20545;-68
2022/09/07 08:47:03;;;;;;;3.37;2.10;;;;;;;31.04;38.50;100073.00;5096751;28;20984;-67
2022/09/07 08:49:35;;;;;;;3.17;2.17;;;;;;;30.95;38.13;100069.97;5104115;28;20449;-69
2022/09/07 08:52:06;;;;;;;2.67;1.83;;;;;;;32.32;36.05;100073.38;5112841;28;20504;-69
2022/09/07 08:54:33;;;;;;;3.40;1.93;;;;;;;33.03;34.79;100055.19;5110282;28;20509;-69
2022/09/07 08:57:02;;;;;;;2.00;1.60;;;;;;;33.00;34.76;100055.78;5108115;27;20580;-69
2022/09/07 08:59:38;;;;;;;2.73;1.73;;;;;;;31.44;37.90;100051.81;5097527;28;20474;-69
2022/09/07 09:02:10;;;;;;;2.70;1.90;;;;;;;29.77;41.29;100053.47;5097275;28;20547;-71
2022/09/07 09:04:39;;;;;;;4.00;1.70;;;;;;;28.34;44.86;100048.84;5102159;28;20482;-70
2022/09/07 09:07:13;;;;;;;2.07;1.63;;;;;;;31.52;38.50;100054.00;5108395;27;20514;-70
2022/09/07 09:09:54;;;;;;;2.10;1.90;;;;;;;33.03;34.92;100052.44;5105401;28;20450;-67
2022/09/07 09:12:27;;;;;;;2.80;1.70;;;;;;;33.11;34.72;100056.50;5098437;28;20504;-68
2022/09/07 09:15:09;;;;;;;3.50;1.33;;;;;;;31.98;35.87;100052.03;5100214;28;20437;-71
2022/09/07 09:17:39;;;;;;;1.50;1.10;;;;;;;30.13;39.04;100049.91;5099124;28;20993;-68
2022/09/07 09:20:16;;;;;;;1.90;1.50;;;;;;;29.33;40.28;100064.06;5100585;28;20840;-68
2022/09/07 09:22:43;;;;;;;2.07;1.50;;;;;;;29.50;41.39;100064.66;5099274;28;20507;-68
2022/09/07 09:25:18;;;;;;;2.87;1.40;;;;;;;29.50;41.35;100061.91;5079301;28;20428;-68
2022/09/07 09:27:47;;;;;;;3.03;1.70;;;;;;;28.67;42.97;100057.09;5097326;28;20493;-67
2022/09/07 09:30:19;;;;;;;5.13;1.80;;;;;;;27.52;45.74;100061.00;5099504;28;20583;-66
2022/09/07 09:32:51;;;;;;;4.37;2.00;;;;;;;28.14;44.98;100066.03;5102535;28;20480;-69
2022/09/07 09:35:24;;;;;;;4.50;2.27;;;;;;;29.60;42.37;100067.44;5094186;28;20435;-68
2022/09/07 09:37:50;;;;;;;3.30;2.00;;;;;;;31.34;38.69;100057.41;5103092;28;20521;-67
2022/09/07 09:40:24;;;;;;;2.50;1.87;;;;;;;32.42;35.33;100067.75;5102533;28;20457;-67
2022/09/07 09:43:02;;;;;;;3.73;2.30;;;;;;;30.21;39.51;100071.41;5101699;28;20490;-70
2022/09/07 09:45:35;;;;;;;2.77;1.70;;;;;;;28.57;43.48;100059.78;5114221;27;20484;-67
2022/09/07 09:48:03;;;;;;;2.77;1.80;;;;;;;30.12;39.82;100062.00;5122569;28;20444;-68
2022/09/07 09:50:33;;;;;;;2.87;1.83;;;;;;;30.74;38.60;100062.81;5122115;27;20472;-68
2022/09/07 09:53:00;;;;;;;2.30;1.43;;;;;;;32.09;35.84;100057.22;5124402;28;20543;-69
2022/09/07 09:55:30;;;;;;;1.33;1.20;;;;;;;31.29;37.46;100066.53;5123847;28;20472;-68
2022/09/07 09:57:59;;;;;;;3.17;1.60;;;;;;;31.62;36.42;100072.47;5109940;28;20459;-68
2022/09/07 10:00:27;;;;;;;2.53;1.33;;;;;;;30.89;36.71;100068.28;5083298;28;22352;-69
2022/09/07 10:03:07;;;;;;;3.67;1.83;;;;;;;29.57;39.07;100067.97;5083504;28;20455;-69
2022/09/07 10:05:37;;;;;;;6.00;1.63;;;;;;;28.45;41.29;100068.19;5101809;28;20465;-68
2022/09/07 10:08:14;;;;;;;2.17;1.57;;;;;;;29.45;40.52;100056.38;5122422;28;20582;-68
2022/09/07 10:10:53;;;;;;;1.70;1.43;;;;;;;28.81;41.33;100058.28;5105512;28;20493;-67
2022/09/07 10:13:22;;;;;;;1.50;1.37;;;;;;;28.46;42.18;100061.59;5112824;28;20453;-67
2022/09/07 10:15:51;;;;;;;1.70;1.60;;;;;;;28.57;41.94;100062.53;5102325;28;20557;-67
2022/09/07 10:18:25;;;;;;;3.90;1.77;;;;;;;28.96;41.18;100056.69;5101084;28;20449;-68
2022/09/07 10:20:52;;;;;;;1.80;1.37;;;;;;;29.41;41.20;100053.34;5102428;28;20471;-68
2022/09/07 10:23:21;;;;;;;2.00;1.50;;;;;;;29.14;40.35;100055.41;5102274;28;20450;-68
2022/09/07 10:25:48;;;;;;;2.17;1.97;;;;;;;28.29;42.20;100059.00;5101877;28;20478;-68
2022/09/07 10:28:23;;;;;;;3.67;2.43;;;;;;;29.31;40.65;100056.06;5102461;28;20488;-68
2022/09/07 10:30:59;;;;;;;3.00;2.13;;;;;;;28.81;40.65;100062.97;5102094;28;20563;-67
2022/09/07 10:33:34;;;;;;;3.93;2.50;;;;;;;29.32;39.90;100054.94;5100526;28;20510;-68
2022/09/07 10:36:07;;;;;;;4.27;2.13;;;;;;;29.36;39.56;100050.56;5102343;27;20506;-69
2022/09/07 10:38:36;;;;;;;2.93;2.07;;;;;;;30.02;37.92;100051.84;5102602;28;20430;-68
2022/09/07 10:41:06;;;;;;;3.10;1.60;;;;;;;29.65;38.17;100048.16;5103815;27;20478;-69
2022/09/07 10:43:41;;;;;;;3.00;1.67;;;;;;;29.61;38.50;100043.47;5121625;28;20965;-69
2022/09/07 10:46:30;;;;;;;2.20;1.87;;;;;;;30.77;37.11;100041.00;5120866;28;20488;-69
2022/09/07 10:49:12;;;;;;;2.43;1.80;;;;;;;31.53;35.58;100038.25;5101262;28;20482;-67
2022/09/07 10:51:44;;;;;;;2.33;2.10;;;;;;;32.40;34.57;100042.31;5101970;28;20607;-67
2022/09/07 10:54:18;;;;;;;2.33;2.00;;;;;;;31.17;36.16;100043.94;5101661;28;20462;-66
2022/09/07 10:56:52;;;;;;;5.10;2.30;;;;;;;31.20;35.58;100034.25;5101003;28;20539;-67
2022/09/07 10:59:30;;;;;;;1.77;1.67;;;;;;;31.38;36.61;100039.13;5102275;28;20582;-67
2022/09/07 11:02:03;;;;;;;2.20;2.00;;;;;;;29.83;38.51;100041.34;5102128;28;20929;-68
2022/09/07 11:04:45;;;;;;;4.40;2.27;;;;;;;31.76;35.63;100036.72;5101827;28;20499;-68
2022/09/07 11:07:23;;;;;;;2.37;2.17;;;;;;;31.97;34.77;100042.91;5101969;28;20513;-67
2022/09/07 11:09:57;;;;;;;2.90;2.27;;;;;;;31.12;36.65;100038.44;5102017;28;20517;-68
2022/09/07 11:12:26;;;;;;;3.60;3.30;;;;;;;30.21;38.02;100041.09;5101373;28;20629;-68
2022/09/07 11:14:59;;;;;;;3.57;2.43;;;;;;;30.10;39.02;100043.00;5102640;28;20458;-68
2022/09/07 11:17:27;;;;;;;3.53;2.90;;;;;;;30.36;37.79;100034.75;5101031;28;20471;-68
2022/09/07 11:20:00;;;;;;;3.27;2.97;;;;;;;31.73;35.50;100029.00;5102131;28;20483;-68
2022/09/07 11:22:32;;;;;;;4.00;3.10;;;;;;;30.56;37.16;100028.38;5101626;28;20493;-68
2022/09/07 11:25:05;;;;;;;4.07;3.40;;;;;;;31.08;36.56;100029.06;5101313;28;20562;-68
2022/09/07 11:27:35;;;;;;;4.10;3.80;;;;;;;30.75;36.79;100032.19;5101414;28;20522;-68
2022/09/07 11:30:05;;;;;;;5.03;4.47;;;;;;;31.39;36.17;100035.25;5102640;28;20465;-68
2022/09/07 11:32:35;;;;;;;5.00;4.30;;;;;;;31.33;34.79;100039.16;5101035;28;20450;-68
2022/09/07 11:35:07;;;;;;;5.67;4.70;;;;;;;32.27;33.82;100039.09;5101600;28;20469;-68
2022/09/07 11:37:40;;;;;;;4.80;4.40;;;;;;;31.63;35.01;100037.34;5102077;28;20439;-68